Time;durP1;ratioP1;P1;durP2;ratioP2;P2;SDS_P1;SDS_P2;PMS_P1;PMS_P2;Temp;Humidity;BMP_temperature;BMP_pressure;BME280_temperature;BME280_humidity;BME280_pressure;Samples;Min_cycle;Max_cycle;Signal;HPM_P1;HPM_P2
2021/08/17 00:01:54;;;;;;;8.53;4.27;;;13.80;89.40;;;;;;5054926;28;20171;-89
2021/08/17 00:04:21;;;;;;;6.87;5.53;;;15.80;87.80;;;;;;5073795;28;20408;-90
2021/08/17 00:06:49;;;;;;;6.23;4.60;;;13.20;84.10;;;;;;5070430;28;20217;-92
2021/08/17 00:09:41;;;;;;;9.20;4.90;;;15.80;89.40;;;;;;5070049;28;20410;-91
2021/08/17 00:12:56;;;;;;;7.07;5.50;;;15.00;90.20;;;;;;5075088;28;20410;-90
2021/08/17 00:15:22;;;;;;;6.60;4.20;;;16.10;87.00;;;;;;5023798;28;20422;-90
2021/08/17 00:17:48;;;;;;;5.67;4.40;;;15.10;91.00;;;;;;5074444;28;20436;-92
2021/08/17 00:20:16;;;;;;;4.57;4.17;;;13.10;88.10;;;;;;5076644;28;20191;-90
2021/08/17 00:23:11;;;;;;;12.17;4.03;;;14.10;90.40;;;;;;5057784;28;20439;-90
2021/08/17 00:26:10;;;;;;;9.13;3.60;;;13.50;86.90;;;;;;5074946;28;20406;-90
2021/08/17 00:28:38;;;;;;;4.70;3.63;;;15.50;90.10;;;;;;5066120;28;20484;-89
2021/08/17 00:33:53;;;;;;;14.47;5.03;;;;;;;;;;5076882;28;20476;-91
2021/08/17 00:39:07;;;;;;;7.63;4.97;;;15.80;92.90;;;;;;5177361;22;20464;-91
2021/08/17 00:41:33;;;;;;;8.53;4.80;;;13.20;93.20;;;;;;5077483;28;20923;-90
2021/08/17 00:44:05;;;;;;;5.70;4.50;;;12.80;92.00;;;;;;5093137;28;20409;-90
2021/08/17 00:46:34;;;;;;;7.33;4.30;;;12.80;92.20;;;;;;5093422;28;20516;-91
2021/08/17 00:49:02;;;;;;;5.07;3.90;;;16.30;99.90;;;;;;5077944;28;20420;-91
2021/08/17 00:51:28;;;;;;;5.10;4.70;;;13.40;95.50;;;;;;5096381;28;20450;-90
2021/08/17 00:53:54;;;;;;;5.97;5.07;;;12.60;93.80;;;;;;5090781;28;20524;-91
2021/08/17 00:56:21;;;;;;;8.77;4.90;;;15.20;97.60;;;;;;5076876;28;20154;-91
2021/08/17 00:58:50;;;;;;;5.43;5.00;;;15.00;96.20;;;;;;5076381;28;20429;-90
2021/08/17 01:01:18;;;;;;;14.03;5.73;;;16.60;99.90;;;;;;5093177;28;20416;-91
2021/08/17 01:03:44;;;;;;;5.93;5.10;;;14.00;97.60;;;;;;5095340;28;20412;-90
2021/08/17 01:06:10;;;;;;;8.93;5.60;;;;;;;;;;5410690;22;20474;-90
2021/08/17 01:08:35;;;;;;;8.63;6.00;;;12.10;95.10;;;;;;5121184;28;20233;-90
2021/08/17 01:11:02;;;;;;;9.70;5.50;;;13.20;99.90;;;;;;5117021;28;20442;-90
2021/08/17 01:13:32;;;;;;;8.67;6.90;;;10.80;96.00;;;;;;5138972;28;20166;-90
2021/08/17 01:15:59;;;;;;;15.37;6.90;;;;;;;;;;5123508;28;20419;-90
2021/08/17 01:18:25;;;;;;;8.60;4.17;;;12.30;96.50;;;;;;5120373;28;20415;-90
2021/08/17 01:20:55;;;;;;;8.43;6.00;;;14.30;98.70;;;;;;5136364;28;20391;-91
2021/08/17 01:23:24;;;;;;;10.27;6.10;;;16.70;99.90;;;;;;5120505;28;20415;-90
2021/08/17 01:25:51;;;;;;;8.93;6.50;;;;;;;;;;5123094;28;20473;-91
2021/08/17 01:28:19;;;;;;;11.77;6.73;;;12.20;96.90;;;;;;5117920;28;20387;-91
2021/08/17 01:30:45;;;;;;;14.13;7.33;;;16.00;99.90;;;;;;5118726;28;20390;-91
2021/08/17 01:33:14;;;;;;;12.70;6.90;;;9.80;99.70;;;;;;5139458;28;20398;-90
2021/08/17 01:35:43;;;;;;;14.80;8.50;;;11.00;98.20;;;;;;5120938;28;20168;-90
2021/08/17 01:38:09;;;;;;;13.57;8.03;;;12.10;97.90;;;;;;5119455;28;20418;-90
2021/08/17 01:40:35;;;;;;;19.33;10.20;;;12.10;98.60;;;;;;5119810;28;20427;-90
2021/08/17 01:43:01;;;;;;;18.37;8.20;;;;;;;;;;5119540;28;20149;-89
2021/08/17 01:45:26;;;;;;;12.90;9.00;;;12.10;98.50;;;;;;5118345;28;20192;-90
2021/08/17 01:47:54;;;;;;;18.47;9.53;;;12.10;98.40;;;;;;5137214;28;20410;-89
2021/08/17 01:50:20;;;;;;;16.37;10.50;;;12.10;98.70;;;;;;5134147;28;20149;-90
2021/08/17 01:52:46;;;;;;;19.60;10.90;;;12.10;99.90;;;;;;5132061;28;20407;-89
2021/08/17 01:55:13;;;;;;;20.70;11.33;;;12.10;99.30;;;;;;5111698;28;20419;-90
2021/08/17 01:57:39;;;;;;;22.90;10.83;;;13.10;99.90;;;;;;5134741;28;20171;-90
2021/08/17 02:00:08;;;;;;;18.37;11.37;;;12.10;99.40;;;;;;5100679;28;20411;-90
2021/08/17 02:02:36;;;;;;;21.40;11.97;;;12.10;99.70;;;;;;5115008;28;20419;-90
2021/08/17 02:05:02;;;;;;;26.60;12.80;;;12.20;99.80;;;;;;5109234;28;20459;-90
2021/08/17 02:07:28;;;;;;;27.37;12.80;;;12.00;99.60;;;;;;5098001;28;20452;-89
2021/08/17 02:09:54;;;;;;;28.60;15.00;;;;;;;;;;5099782;28;20991;-91
2021/08/17 02:12:20;;;;;;;25.63;14.33;;;12.20;99.90;;;;;;5100072;28;20184;-90
2021/08/17 02:14:46;;;;;;;26.67;14.40;;;;;;;;;;5117168;28;20412;-91
2021/08/17 02:17:13;;;;;;;19.80;10.80;;;;;;;;;;5102178;28;20404;-90
2021/08/17 02:19:39;;;;;;;27.00;12.87;;;12.40;99.90;;;;;;5094972;28;20620;-91
2021/08/17 02:22:05;;;;;;;28.87;14.83;;;;;;;;;;5118677;28;20418;-91
2021/08/17 02:24:31;;;;;;;37.50;18.63;;;12.40;99.90;;;;;;5101478;28;20404;-90
2021/08/17 02:26:57;;;;;;;35.27;17.80;;;12.40;99.90;;;;;;5116168;28;20467;-88
2021/08/17 02:29:23;;;;;;;32.40;16.73;;;12.70;99.90;;;;;;5116673;28;20220;-90
2021/08/17 02:31:49;;;;;;;29.90;16.13;;;;;;;;;;5118018;28;20416;-90
2021/08/17 02:34:15;;;;;;;39.10;16.70;;;13.00;99.90;;;;;;5118335;28;20405;-91
2021/08/17 02:36:41;;;;;;;38.40;17.87;;;;;;;;;;5098580;28;20428;-90
2021/08/17 02:39:07;;;;;;;45.00;17.63;;;12.60;99.90;;;;;;5097310;28;20150;-90
2021/08/17 02:41:33;;;;;;;40.67;18.47;;;11.70;99.90;;;;;;5112876;28;20431;-90
2021/08/17 02:43:58;;;;;;;34.97;17.80;;;12.70;99.90;;;;;;5116510;28;20225;-90
2021/08/17 02:46:24;;;;;;;33.37;17.20;;;14.40;99.90;;;;;;5097173;28;20202;-91
2021/08/17 02:48:50;;;;;;;37.97;19.37;;;14.10;99.90;;;;;;5114538;28;20226;-90
2021/08/17 02:51:16;;;;;;;39.27;17.60;;;;;;;;;;5113990;28;20158;-93
2021/08/17 02:53:42;;;;;;;39.87;19.00;;;12.90;99.90;;;;;;5097065;28;20174;-92
2021/08/17 02:56:10;;;;;;;37.70;18.87;;;14.50;99.90;;;;;;5093408;28;20420;-89
2021/08/17 02:58:39;;;;;;;42.30;20.33;;;17.40;99.90;;;;;;5096772;28;20444;-90
2021/08/17 03:01:04;;;;;;;42.67;20.10;;;13.00;99.90;;;;;;5117345;28;20384;-89
2021/08/17 03:03:30;;;;;;;42.90;20.03;;;16.30;99.90;;;;;;5096229;28;20427;-91
2021/08/17 03:06:01;;;;;;;47.07;21.13;;;13.60;99.90;;;;;;5092500;28;20271;-90
2021/08/17 03:08:27;;;;;;;42.97;20.93;;;13.00;99.90;;;;;;5116400;28;20154;-90
2021/08/17 03:10:54;;;;;;;44.37;21.67;;;17.00;99.90;;;;;;5098145;28;20396;-90
2021/08/17 03:13:19;;;;;;;56.77;21.33;;;14.30;99.90;;;;;;5097250;28;20182;-90
2021/08/17 03:15:46;;;;;;;45.97;21.50;;;13.80;99.90;;;;;;5111542;28;20415;-90
2021/08/17 03:18:12;;;;;;;42.03;21.20;;;17.40;99.90;;;;;;5114067;28;20446;-89
2021/08/17 03:20:41;;;;;;;49.37;21.30;;;12.30;99.90;;;;;;5116815;28;20416;-90
2021/08/17 03:23:13;;;;;;;44.03;22.13;;;15.50;99.90;;;;;;5095403;28;20419;-90
2021/08/17 03:25:41;;;;;;;48.57;23.27;;;13.90;99.90;;;;;;5113987;28;20420;-90
2021/08/17 03:28:06;;;;;;;49.40;22.70;;;16.60;99.90;;;;;;5099724;28;20415;-88
2021/08/17 03:30:33;;;;;;;47.53;22.47;;;;;;;;;;5116918;28;20455;-91
2021/08/17 03:33:02;;;;;;;49.00;23.73;;;13.10;99.90;;;;;;5115420;28;20158;-90
2021/08/17 03:35:27;;;;;;;53.23;23.77;;;16.20;99.90;;;;;;5092914;28;20450;-89
2021/08/17 03:37:54;;;;;;;47.70;22.80;;;;;;;;;;5099240;28;20419;-91
2021/08/17 03:40:21;;;;;;;55.20;23.13;;;13.10;99.90;;;;;;5095201;28;20162;-91
2021/08/17 03:42:48;;;;;;;50.00;20.60;;;17.60;99.90;;;;;;5093944;28;20412;-91
2021/08/17 03:45:16;;;;;;;50.10;22.77;;;16.10;99.90;;;;;;5098931;28;20424;-90
2021/08/17 03:47:42;;;;;;;42.13;21.33;;;12.80;99.90;;;;;;5095827;28;20471;-90
2021/08/17 03:50:11;;;;;;;42.40;22.20;;;12.80;99.90;;;;;;5094715;28;20411;-90
2021/08/17 03:52:37;;;;;;;51.60;20.50;;;13.60;99.90;;;;;;5095268;28;20423;-90
2021/08/17 03:55:04;;;;;;;42.43;22.37;;;12.30;99.90;;;;;;5097964;28;20423;-90
2021/08/17 03:57:30;;;;;;;49.83;23.70;;;15.90;99.90;;;;;;5117558;28;20396;-90
2021/08/17 03:59:56;;;;;;;47.40;24.27;;;;;;;;;;5094540;28;20436;-90
2021/08/17 04:02:22;;;;;;;48.13;22.13;;;13.10;99.90;;;;;;5100874;28;20487;-91
2021/08/17 04:04:49;;;;;;;55.03;23.60;;;17.70;99.90;;;;;;5101226;28;20507;-90
2021/08/17 04:07:15;;;;;;;54.80;25.60;;;15.70;99.90;;;;;;5115938;28;20493;-89
2021/08/17 04:09:40;;;;;;;49.93;24.80;;;15.20;99.90;;;;;;5096201;28;20451;-87
2021/08/17 04:12:06;;;;;;;48.37;23.47;;;13.60;99.90;;;;;;5094548;28;20462;-91
2021/08/17 04:14:32;;;;;;;46.97;22.43;;;13.70;99.90;;;;;;5097236;28;20197;-89
2021/08/17 04:16:58;;;;;;;45.93;23.10;;;;;;;;;;5097863;28;20419;-89
2021/08/17 04:19:30;;;;;;;48.23;21.90;;;13.20;99.90;;;;;;5109353;28;20158;-89
2021/08/17 04:21:56;;;;;;;49.70;24.20;;;15.10;99.90;;;;;;5092681;28;20475;-91
2021/08/17 04:24:23;;;;;;;52.03;23.90;;;15.70;99.90;;;;;;5106734;28;20411;-90
2021/08/17 04:26:49;;;;;;;50.90;24.90;;;13.20;99.90;;;;;;5104450;28;20202;-87
2021/08/17 04:29:14;;;;;;;47.93;24.40;;;15.80;99.90;;;;;;5092274;28;20392;-90
2021/08/17 04:31:43;;;;;;;50.37;25.13;;;;;;;;;;5091670;28;20905;-90
2021/08/17 04:34:09;;;;;;;52.23;24.73;;;13.30;99.90;;;;;;5094007;28;20162;-88
2021/08/17 04:36:36;;;;;;;50.30;22.67;;;;;;;;;;5109466;28;20427;-89
2021/08/17 04:39:03;;;;;;;43.47;21.77;;;13.30;99.70;;;;;;5091177;28;20169;-89
2021/08/17 04:41:29;;;;;;;43.77;22.53;;;13.20;99.80;;;;;;5091402;28;20455;-88
2021/08/17 04:43:57;;;;;;;42.40;21.37;;;15.10;99.90;;;;;;5091609;28;20412;-89
2021/08/17 04:46:25;;;;;;;43.37;23.07;;;14.20;99.90;;;;;;5110895;28;20296;-89
2021/08/17 04:48:50;;;;;;;42.67;23.07;;;13.50;99.60;;;;;;5095023;28;20422;-89
2021/08/17 04:51:20;;;;;;;47.53;22.15;;;11.20;98.70;;;;;;4742203;28;9999897;-89
2021/08/17 04:53:46;;;;;;;42.90;20.67;;;13.80;99.90;;;;;;5094398;28;20172;-89
2021/08/17 04:56:12;;;;;;;48.20;21.60;;;;;;;;;;5113444;28;20416;-89
2021/08/17 04:58:39;;;;;;;44.33;21.97;;;13.30;99.40;;;;;;5102457;28;20150;-89
2021/08/17 05:01:05;;;;;;;40.10;21.50;;;12.70;99.90;;;;;;5085759;28;20436;-87
2021/08/17 05:03:31;;;;;;;42.93;21.57;;;;;;;;;;5103019;28;20456;-91
2021/08/17 05:05:58;;;;;;;49.80;23.37;;;13.40;99.50;;;;;;5111032;28;20225;-91
2021/08/17 05:08:24;;;;;;;44.67;22.30;;;15.10;99.90;;;;;;5120008;28;20423;-92
2021/08/17 05:10:50;;;;;;;44.60;22.47;;;17.00;99.90;;;;;;5117402;28;20459;-90
2021/08/17 05:13:16;;;;;;;38.67;18.87;;;;;;;;;;5113996;28;20422;-91
2021/08/17 05:15:42;;;;;;;40.67;21.33;;;13.50;99.30;;;;;;5116966;28;20165;-89
2021/08/17 05:18:08;;;;;;;47.90;24.07;;;13.60;99.90;;;;;;5135985;28;20407;-91
2021/08/17 05:20:39;;;;;;;38.30;19.27;;;13.70;99.80;;;;;;5117610;28;20628;-91
2021/08/17 05:23:04;;;;;;;37.60;21.13;;;16.60;99.90;;;;;;5102519;28;20185;-90
2021/08/17 05:25:32;;;;;;;36.13;21.47;;;18.50;99.90;;;;;;5115281;28;20490;-89
2021/08/17 05:27:57;;;;;;;47.20;22.20;;;12.90;99.90;;;;;;5099996;28;20185;-87
2021/08/17 05:30:23;;;;;;;44.43;22.87;;;;;;;;;;5118046;28;20494;-92
2021/08/17 05:32:51;;;;;;;39.60;22.33;;;14.80;98.80;;;;;;5100419;28;20184;-91
2021/08/17 05:35:17;;;;;;;39.03;20.77;;;14.30;99.90;;;;;;5118416;28;20419;-91
2021/08/17 05:37:44;;;;;;;39.70;21.47;;;13.10;99.50;;;;;;5138020;28;20445;-92
2021/08/17 05:40:12;;;;;;;40.07;22.87;;;14.00;99.90;;;;;;5115943;28;20423;-87
2021/08/17 05:42:38;;;;;;;40.50;21.40;;;14.10;98.10;;;;;;5134852;28;20513;-90
2021/08/17 05:45:06;;;;;;;41.17;20.37;;;16.20;99.90;;;;;;5118198;28;20925;-92
2021/08/17 05:47:46;;;;;;;38.27;21.10;;;16.90;99.90;;;;;;5116509;28;20481;-93
2021/08/17 05:50:16;;;;;;;44.47;21.37;;;14.50;98.30;;;;;;5114682;28;20418;-90
2021/08/17 05:52:45;;;;;;;35.47;21.20;;;17.10;99.90;;;;;;5115960;28;20407;-90
2021/08/17 05:55:13;;;;;;;44.50;22.70;;;13.50;99.90;;;;;;5096178;28;20788;-90
2021/08/17 05:57:39;;;;;;;40.77;22.33;;;12.30;97.40;;;;;;5114442;28;20426;-90
2021/08/17 06:00:14;;;;;;;35.43;19.80;;;14.70;99.90;;;;;;5115740;28;20407;-93
2021/08/17 06:02:40;;;;;;;43.67;22.47;;;17.20;99.90;;;;;;5115081;28;20415;-91
2021/08/17 06:05:07;;;;;;;43.47;23.30;;;15.40;99.90;;;;;;5116098;28;20493;-89
2021/08/17 06:07:38;;;;;;;36.80;21.23;;;20.60;99.90;;;;;;5094933;28;20221;-91
2021/08/17 06:10:05;;;;;;;47.10;23.93;;;13.10;99.90;;;;;;5094044;28;20420;-90
2021/08/17 06:12:37;;;;;;;39.33;22.50;;;13.80;99.90;;;;;;5194794;22;20479;-90
2021/08/17 06:15:04;;;;;;;34.33;20.40;;;13.90;99.90;;;;;;5123734;28;20403;-92
2021/08/17 06:17:33;;;;;;;38.67;24.57;;;13.90;99.60;;;;;;5115116;28;20777;-91
2021/08/17 06:20:02;;;;;;;43.83;23.90;;;17.50;99.90;;;;;;5112766;28;20419;-90
2021/08/17 06:22:28;;;;;;;44.30;24.70;;;18.70;99.90;;;;;;5115210;28;20436;-90
2021/08/17 06:24:54;;;;;;;43.23;23.37;;;16.60;99.90;;;;;;5113382;28;20934;-90
2021/08/17 06:27:20;;;;;;;35.73;22.70;;;;;;;;;;5115657;28;20352;-90
2021/08/17 06:29:45;;;;;;;42.77;25.00;;;15.00;96.70;;;;;;5113693;28;20525;-90
2021/08/17 06:32:14;;;;;;;35.07;20.70;;;14.00;97.10;;;;;;5133882;28;20404;-89
2021/08/17 06:34:39;;;;;;;39.93;23.17;;;13.20;98.20;;;;;;5114168;28;20166;-90
2021/08/17 06:37:05;;;;;;;36.07;22.87;;;17.00;99.90;;;;;;5115818;28;20460;-91
2021/08/17 06:39:31;;;;;;;40.37;23.00;;;16.20;97.20;;;;;;5133060;28;20160;-92
2021/08/17 06:41:57;;;;;;;40.90;22.73;;;;;;;;;;5129599;28;20200;-92
2021/08/17 06:44:22;;;;;;;31.57;20.40;;;15.60;94.80;;;;;;5114118;28;20220;-90
2021/08/17 06:46:48;;;;;;;34.07;21.87;;;17.00;97.70;;;;;;5112648;28;20450;-90
2021/08/17 06:49:14;;;;;;;35.43;21.60;;;;;;;;;;5129487;28;20170;-89
2021/08/17 06:51:39;;;;;;;35.50;21.80;;;15.40;94.50;;;;;;5129910;28;20169;-91
2021/08/17 06:54:08;;;;;;;35.37;21.10;;;13.00;95.10;;;;;;5108495;28;20811;-93
2021/08/17 06:56:35;;;;;;;42.87;24.00;;;16.80;98.50;;;;;;5110523;28;20173;-90
2021/08/17 06:59:02;;;;;;;35.27;20.40;;;15.60;99.50;;;;;;5129993;28;20414;-92
2021/08/17 07:01:28;;;;;;;47.77;23.43;;;18.00;98.10;;;;;;5133251;28;20444;-92
2021/08/17 07:03:55;;;;;;;34.83;21.43;;;;;;;;;;5113877;28;20414;-90
2021/08/17 07:06:26;;;;;;;36.10;22.57;;;15.60;94.70;;;;;;5131989;28;20193;-91
2021/08/17 07:08:52;;;;;;;35.13;21.60;;;17.40;95.50;;;;;;5130705;28;20415;-87
2021/08/17 07:11:18;;;;;;;34.50;21.50;;;;;;;;;;5109832;28;20552;-90
2021/08/17 07:13:45;;;;;;;39.30;22.40;;;15.50;94.20;;;;;;5127592;28;20185;-90
2021/08/17 07:16:12;;;;;;;37.80;22.13;;;;;;;;;;5126971;28;20446;-92
2021/08/17 07:18:41;;;;;;;37.53;23.47;;;15.70;94.10;;;;;;5114113;28;20197;-91
2021/08/17 07:21:07;;;;;;;37.23;21.43;;;;;;;;;;5112637;28;20933;-91
2021/08/17 07:23:37;;;;;;;37.33;21.37;;;15.90;93.60;;;;;;5114322;28;20188;-91
2021/08/17 07:26:08;;;;;;;38.77;21.47;;;16.00;94.00;;;;;;5117055;28;20470;-89
2021/08/17 07:28:43;;;;;;;34.80;22.30;;;16.50;95.50;;;;;;5135920;27;20415;-89
2021/08/17 07:31:09;;;;;;;33.00;19.80;;;16.00;97.30;;;;;;5094145;28;20456;-91
2021/08/17 07:33:56;;;;;;;35.90;21.80;;;16.20;96.00;;;;;;5095951;28;20407;-89
2021/08/17 07:36:23;;;;;;;35.97;21.40;;;18.30;94.50;;;;;;5079189;28;20430;-89
2021/08/17 07:38:49;;;;;;;33.97;20.03;;;16.90;96.80;;;;;;5129221;28;20419;-88
2021/08/17 07:41:14;;;;;;;28.90;18.17;;;16.80;94.90;;;;;;5112187;28;20405;-90
2021/08/17 07:43:40;;;;;;;31.93;19.00;;;18.40;94.50;;;;;;5110716;28;20161;-89
2021/08/17 07:46:06;;;;;;;32.20;19.03;;;16.90;93.90;;;;;;5108724;28;20201;-91
2021/08/17 07:48:32;;;;;;;37.53;18.93;;;19.60;92.90;;;;;;5111131;28;20173;-90
2021/08/17 07:51:00;;;;;;;29.90;21.50;;;18.80;90.20;;;;;;5117472;28;20181;-88
2021/08/17 07:53:30;;;;;;;26.27;16.67;;;18.30;90.50;;;;;;5092218;28;20433;-90
2021/08/17 07:56:01;;;;;;;26.93;17.43;;;17.90;88.60;;;;;;5088608;28;20173;-91
2021/08/17 07:58:38;;;;;;;25.60;19.40;;;19.90;87.00;;;;;;5090766;28;20439;-91
2021/08/17 08:01:05;;;;;;;30.33;18.23;;;19.80;84.10;;;;;;5087378;28;20408;-90
2021/08/17 08:03:34;;;;;;;29.87;18.63;;;20.70;86.10;;;;;;5088071;28;20420;-91
2021/08/17 08:06:00;;;;;;;27.67;18.27;;;20.10;82.90;;;;;;5104330;28;20958;-91
2021/08/17 08:08:26;;;;;;;25.33;18.37;;;17.90;83.10;;;;;;5088464;28;20439;-85
2021/08/17 08:10:52;;;;;;;32.43;18.53;;;;;;;;;;5090208;28;20404;-90
2021/08/17 08:13:18;;;;;;;30.67;17.90;;;18.10;83.00;;;;;;5088259;28;20222;-91
2021/08/17 08:15:47;;;;;;;26.53;16.93;;;20.00;90.60;;;;;;5107161;28;20430;-91
2021/08/17 08:18:13;;;;;;;33.40;17.70;;;19.20;86.90;;;;;;5114405;28;20234;-88
2021/08/17 08:20:49;;;;;;;34.10;17.87;;;17.60;85.60;;;;;;5101653;28;20436;-94
2021/08/17 08:23:14;;;;;;;27.07;18.40;;;18.00;88.40;;;;;;5092655;28;20186;-90
2021/08/17 08:25:40;;;;;;;25.60;16.17;;;19.10;89.60;;;;;;5091557;28;20448;-89
2021/08/17 08:28:11;;;;;;;29.73;18.83;;;19.40;90.70;;;;;;5109298;28;20190;-90
2021/08/17 08:30:39;;;;;;;28.97;16.53;;;18.40;87.30;;;;;;5091958;28;20480;-90
2021/08/17 08:33:08;;;;;;;29.90;16.73;;;18.80;88.50;;;;;;5112009;28;20487;-93
2021/08/17 08:35:37;;;;;;;29.07;16.70;;;19.20;90.20;;;;;;5092916;28;20431;-93
2021/08/17 08:38:05;;;;;;;25.33;16.97;;;20.10;90.60;;;;;;5110599;28;20435;-91
2021/08/17 08:40:32;;;;;;;25.63;17.33;;;19.10;83.30;;;;;;5092846;28;20408;-91
2021/08/17 08:43:08;;;;;;;27.77;17.93;;;19.70;81.00;;;;;;5105431;28;20439;-91
2021/08/17 08:46:00;;;;;;;35.57;19.33;;;18.70;82.10;;;;;;5116231;27;20418;-90
2021/08/17 08:48:26;;;;;;;24.03;16.80;;;20.30;85.70;;;;;;5099599;28;20414;-88
2021/08/17 08:50:52;;;;;;;26.00;15.67;;;;;;;;;;5105384;28;20435;-88
2021/08/17 08:53:23;;;;;;;28.60;18.87;;;18.20;80.50;;;;;;5125621;28;20169;-90
2021/08/17 08:55:49;;;;;;;29.83;20.10;;;19.10;88.50;;;;;;5104094;28;20918;-89
2021/08/17 08:58:17;;;;;;;26.60;18.37;;;19.30;88.80;;;;;;5103311;28;20414;-91
2021/08/17 09:00:45;;;;;;;29.13;18.97;;;18.00;85.10;;;;;;5101014;28;20209;-89
2021/08/17 09:03:11;;;;;;;27.23;18.17;;;19.20;86.30;;;;;;5121059;28;20446;-85
2021/08/17 09:05:52;;;;;;;26.70;19.27;;;19.00;89.00;;;;;;5121349;28;20395;-86
2021/08/17 09:08:27;;;;;;;23.27;17.33;;;17.90;83.00;;;;;;5124503;28;20855;-92
2021/08/17 09:11:12;;;;;;;29.47;19.43;;;17.90;83.40;;;;;;5088700;28;20417;-90
2021/08/17 09:13:38;;;;;;;30.83;19.40;;;19.00;85.10;;;;;;5102333;28;20432;-86
2021/08/17 09:16:34;;;;;;;33.23;19.17;;;17.50;84.90;;;;;;5102752;28;20465;-89
2021/08/17 09:19:00;;;;;;;23.43;18.03;;;18.20;82.70;;;;;;5083562;28;20181;-90
2021/08/17 09:21:39;;;;;;;32.83;20.10;;;18.30;82.50;;;;;;5082734;28;20446;-88
2021/08/17 09:24:20;;;;;;;29.03;19.47;;;18.30;80.20;;;;;;5097803;28;20170;-88
2021/08/17 09:27:02;;;;;;;25.60;17.13;;;18.00;81.70;;;;;;5098286;28;20490;-88
2021/08/17 09:29:40;;;;;;;24.97;16.63;;;18.10;80.00;;;;;;5077678;28;20526;-88
2021/08/17 09:32:21;;;;;;;20.80;15.30;;;20.80;82.70;;;;;;4724012;28;10000316;-88
2021/08/17 09:34:50;;;;;;;20.63;15.60;;;19.80;77.90;;;;;;5078064;28;20171;-90
2021/08/17 09:37:42;;;;;;;24.93;15.30;;;19.80;77.50;;;;;;5077668;28;20439;-88
2021/08/17 09:40:08;;;;;;;21.20;12.93;;;19.10;72.50;;;;;;5066264;28;20420;-90
2021/08/17 09:42:35;;;;;;;21.57;13.90;;;18.90;72.20;;;;;;5061478;28;20424;-89
2021/08/17 09:45:14;;;;;;;19.00;13.77;;;18.20;68.90;;;;;;5077082;28;20464;-89
2021/08/17 09:47:45;;;;;;;18.30;14.23;;;19.10;67.70;;;;;;5062614;28;20478;-88
2021/08/17 09:50:16;;;;;;;25.10;15.03;;;19.30;68.00;;;;;;5080728;28;20488;-89
2021/08/17 09:52:44;;;;;;;21.53;14.27;;;19.20;66.10;;;;;;5063082;28;20448;-90
2021/08/17 09:55:18;;;;;;;20.27;13.80;;;19.00;67.60;;;;;;5079004;28;20423;-90
2021/08/17 09:57:48;;;;;;;18.00;14.23;;;19.20;67.30;;;;;;5061799;28;20503;-90
2021/08/17 10:00:15;;;;;;;16.90;11.40;;;20.20;70.60;;;;;;5095797;28;20416;-86
2021/08/17 10:02:53;;;;;;;18.83;13.70;;;19.10;65.50;;;;;;5099685;28;20440;-89
2021/08/17 10:05:23;;;;;;;18.53;13.37;;;18.90;65.80;;;;;;5082078;28;20423;-90
2021/08/17 10:07:52;;;;;;;16.40;12.40;;;19.00;66.50;;;;;;5079848;28;20518;-91
2021/08/17 10:10:20;;;;;;;17.50;13.90;;;19.40;65.90;;;;;;5081264;28;20461;-90
2021/08/17 10:12:46;;;;;;;14.63;11.67;;;19.30;67.60;;;;;;5076268;28;20981;-89
2021/08/17 10:15:15;;;;;;;17.17;12.03;;;20.70;69.20;;;;;;5081305;28;20411;-89
2021/08/17 10:17:44;;;;;;;15.30;12.03;;;17.60;64.00;;;;;;5080975;28;20170;-91
2021/08/17 10:20:10;;;;;;;17.80;10.40;;;20.20;68.90;;;;;;5065397;28;20439;-89
2021/08/17 10:22:38;;;;;;;12.87;11.10;;;19.30;63.10;;;;;;5098386;28;20412;-88
2021/08/17 10:25:06;;;;;;;13.10;11.00;;;17.00;61.80;;;;;;5079946;28;20420;-91
2021/08/17 10:27:35;;;;;;;16.70;13.37;;;19.00;64.00;;;;;;5078704;28;20533;-88
2021/08/17 10:30:10;;;;;;;13.30;11.90;;;19.50;65.70;;;;;;5100937;28;20445;-90
2021/08/17 10:32:59;;;;;;;21.87;12.63;;;18.70;62.90;;;;;;5079920;28;20506;-87
2021/08/17 10:35:34;;;;;;;17.30;12.60;;;18.90;64.00;;;;;;5079502;28;20484;-85
2021/08/17 10:38:09;;;;;;;21.70;12.73;;;19.20;64.40;;;;;;5088363;28;20978;-86
2021/08/17 10:40:53;;;;;;;14.53;11.10;;;19.50;63.00;;;;;;5101925;28;20819;-91
2021/08/17 10:43:20;;;;;;;16.00;10.60;;;19.20;63.80;;;;;;5101399;28;20733;-89
2021/08/17 10:46:03;;;;;;;16.73;11.10;;;19.10;63.10;;;;;;5100165;28;20439;-85
2021/08/17 10:48:49;;;;;;;12.37;10.60;;;18.90;62.60;;;;;;5111106;28;20420;-82
2021/08/17 10:51:17;;;;;;;14.40;12.00;;;18.80;63.50;;;;;;5103381;28;20412;-88
2021/08/17 10:53:44;;;;;;;14.73;11.70;;;18.60;64.70;;;;;;5107660;28;20416;-87
2021/08/17 10:56:20;;;;;;;13.87;10.97;;;18.80;65.80;;;;;;5099412;28;20438;-85
2021/08/17 10:58:53;;;;;;;13.03;10.90;;;19.00;63.70;;;;;;5100153;28;20396;-88
2021/08/17 11:01:31;;;;;;;11.70;10.60;;;18.90;64.70;;;;;;5081969;28;20422;-87
2021/08/17 11:04:09;;;;;;;13.73;12.23;;;19.00;64.50;;;;;;5099460;28;20416;-87
2021/08/17 11:06:54;;;;;;;14.30;12.80;;;19.00;63.70;;;;;;5099826;28;20462;-86
2021/08/17 11:09:28;;;;;;;11.70;10.27;;;18.90;62.20;;;;;;5081194;28;20447;-87
2021/08/17 11:11:59;;;;;;;16.30;11.67;;;18.80;63.40;;;;;;5075450;28;20460;-87
2021/08/17 11:14:28;;;;;;;18.63;12.47;;;18.70;63.20;;;;;;5076454;28;20556;-85
2021/08/17 11:16:57;;;;;;;15.97;10.47;;;18.70;62.90;;;;;;5079138;28;20498;-86
2021/08/17 11:19:28;;;;;;;14.10;11.03;;;18.90;63.60;;;;;;5099650;28;20408;-85
2021/08/17 11:21:59;;;;;;;13.00;11.40;;;18.90;61.90;;;;;;5100538;28;20400;-83
2021/08/17 11:24:35;;;;;;;14.40;9.80;;;18.80;62.90;;;;;;5108197;28;20401;-89
2021/08/17 11:27:16;;;;;;;15.73;12.27;;;18.50;62.90;;;;;;5092941;28;20498;-87
2021/08/17 11:29:56;;;;;;;15.23;12.23;;;18.30;65.40;;;;;;5084495;28;20464;-90
2021/08/17 11:32:41;;;;;;;16.53;12.00;;;18.40;66.40;;;;;;5088689;28;20439;-91
2021/08/17 11:35:10;;;;;;;11.67;10.00;;;18.30;65.50;;;;;;5103565;28;20464;-87
2021/08/17 11:37:42;;;;;;;12.13;10.73;;;18.30;64.90;;;;;;5102648;28;20415;-87
2021/08/17 11:40:10;;;;;;;10.93;9.80;;;18.30;66.50;;;;;;5102748;28;20415;-87
2021/08/17 11:42:41;;;;;;;12.00;9.73;;;18.60;64.40;;;;;;5086168;28;20423;-87
2021/08/17 11:45:18;;;;;;;13.10;10.20;;;18.70;64.00;;;;;;5104056;28;20447;-90
2021/08/17 11:47:48;;;;;;;15.70;11.40;;;18.90;64.40;;;;;;4765686;28;9999953;-89
2021/08/17 11:50:16;;;;;;;11.57;10.37;;;20.20;64.20;;;;;;5103534;28;20611;-86
2021/08/17 11:52:50;;;;;;;11.77;9.57;;;19.70;60.80;;;;;;5098249;28;20407;-90
2021/08/17 11:55:28;;;;;;;11.93;10.07;;;22.00;62.20;;;;;;5118707;28;20414;-90
2021/08/17 11:58:09;;;;;;;10.03;8.87;;;19.60;59.60;;;;;;5105995;28;20401;-91
2021/08/17 12:00:35;;;;;;;9.10;8.20;;;21.00;61.60;;;;;;5104905;28;20416;-88
2021/08/17 12:03:05;;;;;;;8.97;8.07;;;21.40;60.60;;;;;;5123122;28;20502;-89
2021/08/17 12:05:39;;;;;;;9.90;8.40;;;21.60;60.50;;;;;;5104291;28;20314;-89
2021/08/17 12:08:11;;;;;;;6.67;6.20;;;18.90;58.10;;;;;;5115424;28;20470;-82
2021/08/17 12:10:41;;;;;;;7.07;6.50;;;19.40;58.20;;;;;;5118925;28;20439;-86
2021/08/17 12:13:13;;;;;;;7.23;6.70;;;19.50;58.80;;;;;;5127600;28;20486;-83
2021/08/17 12:15:52;;;;;;;8.50;7.80;;;18.50;57.30;;;;;;5102371;28;20436;-83
2021/08/17 12:18:22;;;;;;;8.33;7.63;;;19.00;58.70;;;;;;5099832;28;20467;-84
2021/08/17 12:20:58;;;;;;;7.50;6.90;;;19.00;59.40;;;;;;5117623;28;20500;-85
2021/08/17 12:23:37;;;;;;;10.20;7.70;;;19.00;59.70;;;;;;5116364;28;20548;-86
2021/08/17 12:26:11;;;;;;;8.90;7.97;;;19.20;59.80;;;;;;5115839;28;20475;-83
2021/08/17 12:28:40;;;;;;;7.73;7.03;;;19.30;59.60;;;;;;5118045;28;20492;-90
2021/08/17 12:31:24;;;;;;;10.27;7.40;;;19.20;59.30;;;;;;5122812;28;20418;-88
2021/08/17 12:34:04;;;;;;;7.63;7.00;;;19.00;59.80;;;;;;5104816;28;20419;-91
2021/08/17 12:36:54;;;;;;;8.37;7.67;;;18.70;62.10;;;;;;5105389;28;20457;-91
2021/08/17 12:39:26;;;;;;;9.70;7.50;;;19.40;63.70;;;;;;5102619;28;20447;-87
2021/08/17 12:42:06;;;;;;;10.93;8.67;;;19.90;69.20;;;;;;5122850;28;20423;-89
2021/08/17 12:44:35;;;;;;;10.03;8.80;;;18.40;71.40;;;;;;5101552;28;20480;-86
2021/08/17 12:47:13;;;;;;;8.60;7.70;;;17.70;74.40;;;;;;5101626;28;20465;-84
2021/08/17 12:50:00;;;;;;;9.80;8.80;;;18.50;74.60;;;;;;5115133;28;20782;-85
2021/08/17 12:52:33;;;;;;;10.57;9.63;;;17.30;77.20;;;;;;5115408;28;20397;-82
2021/08/17 12:55:07;;;;;;;11.40;10.20;;;17.20;83.20;;;;;;5089790;28;20847;-85
2021/08/17 12:57:42;;;;;;;10.40;9.43;;;17.00;85.90;;;;;;5112492;28;20567;-88
2021/08/17 13:00:13;;;;;;;11.43;10.23;;;16.90;86.50;;;;;;5115404;28;20825;-85